Latest Weather Observations for Sheffield

IDT60801

Issued at 11:02 am EST Tuesday 3 May 2016 (issued every 30 minutes, with the page automatically refreshed every 10 minutes)

About weather observations | Map of weather stations | Latest weather observations for TAS | Other Formats
Station Details ID: 091291 Name: SHEFFIELD SCHOOL FARM Lat: -41.39 Lon: 146.32 Height: 294.2 m
Data from the previous 72 hours. | See also: Recent months at Sheffield
Date/Time
EST
Temp
°C
App
Temp
°C
Dew
Point
Rel
Hum
%
Delta-T
°C
Wind Press
QNH
hPa
Press
MSL
hPa
Rain
since 9 am
mm
Dir
 
Spd
km/h
Gust
km/h
Spd
kts
Gust
kts
03/11:00am 11.1 5.3 9.5 90 0.8 WNW 30 44 16 24 990.2 990.4 9.6
03/10:30am 11.1 7.4 10.0 93 0.6 NW 20 32 11 17 990.0 990.2 8.2
03/10:00am 11.0 6.3 10.5 97 0.3 NW 26 33 14 18 990.1 990.3 4.8
03/09:30am 11.2 7.9 10.9 98 0.2 NW 19 26 10 14 990.3 990.5 1.6
03/09:00am 10.9 7.9 10.6 98 0.2 NNW 17 22 9 12 990.8 990.9 31.8
03/08:30am 10.9 7.8 10.3 96 0.3 NW 17 22 9 12 991.3 991.4 30.8
03/08:00am 11.0 6.8 9.9 93 0.6 NW 22 30 12 16 991.8 991.9 29.8
03/07:30am 11.2 6.6 9.8 91 0.7 NW 24 35 13 19 991.6 991.7 29.0
03/07:00am 11.7 5.8 11.1 96 0.3 WNW 33 50 18 27 991.5 991.6 28.6
03/06:40am 12.0 5.0 11.4 96 0.3 WNW 39 57 21 31 991.3 991.4 28.2
03/06:30am 12.1 5.6 11.6 97 0.3 WNW 37 54 20 29 991.3 991.4 28.0
03/06:00am 12.6 4.2 12.4 99 0.1 NW 48 80 26 43 990.2 990.4 24.8
03/05:30am 12.7 2.6 12.2 97 0.3 NW 57 83 31 45 990.6 990.7 22.6
03/05:00am 12.5 3.6 11.9 96 0.3 NW 50 70 27 38 990.9 991.0 21.0
03/04:30am 12.3 3.7 11.7 96 0.3 NNW 48 67 26 36 991.6 991.7 19.2
03/04:00am 12.3 3.6 11.2 93 0.6 NW 48 70 26 38 992.0 992.1 17.0
03/03:30am 12.3 3.9 11.0 92 0.7 NNW 46 69 25 37 992.5 992.6 16.2
03/03:00am 12.0 2.0 10.6 91 0.7 NW 54 76 29 41 993.1 993.3 15.4
03/02:30am 12.4 3.9 10.8 90 0.8 NW 46 67 25 36 993.5 993.7 14.6
03/02:00am 12.5 4.6 10.9 90 0.9 NW 43 67 23 36 994.4 994.5 13.8
03/01:37am 12.4 5.3 11.0 91 0.7 NW 39 59 21 32 995.1 995.2 13.4
03/01:30am 12.3 5.2 11.0 92 0.7 NW 39 54 21 29 995.3 995.4 13.2
03/01:01am 12.4 5.6 10.5 88 1.0 NW 37 63 20 34 996.0 996.2 12.2
03/01:00am 12.4 5.6 10.5 88 1.0 NW 37 52 20 28 996.0 996.2 12.2
03/12:30am 12.5 5.1 9.7 83 1.4 NW 39 67 21 36 996.4 996.6 11.2
03/12:06am 12.5 4.8 10.0 85 1.3 NW 41 59 22 32 996.8 997.0 10.6
03/12:00am 12.4 4.7 10.3 87 1.1 NW 41 57 22 31 997.1 997.3 10.4
 
Date/Time
EST
Temp
°C
App
Temp
°C
Dew
Point
Rel
Hum
%
Delta-T
°C
Wind Press
QNH
hPa
Press
MSL
hPa
Rain
since 9 am
mm
Dir
 
Spd
km/h
Gust
km/h
Spd
kts
Gust
kts
02/11:30pm 12.7 4.9 9.9 83 1.5 NW 41 63 22 34 997.4 997.6 9.8
02/11:02pm 12.1 6.1 10.2 88 1.0 NW 32 50 17 27 998.3 998.4 9.2
02/11:00pm 12.3 5.7 10.0 86 1.2 NW 35 52 19 28 998.3 998.4 9.2
02/10:44pm 11.8 5.9 10.4 91 0.7 NW 32 50 17 27 998.4 998.5 8.8
02/10:30pm 11.8 4.9 10.2 90 0.8 NW 37 52 20 28 998.5 998.6 7.8
02/10:00pm 11.7 4.4 10.3 91 0.7 NW 39 59 21 32 999.2 999.4 7.4
02/09:33pm 12.2 6.0 9.9 86 1.2 NW 33 57 18 31 999.2 999.4 6.6
02/09:30pm 12.4 6.4 10.0 85 1.2 NW 32 46 17 25 999.3 999.5 6.6
02/09:00pm 12.0 5.9 9.9 87 1.1 NW 32 44 17 24 999.8 1000.0 6.4
02/08:30pm 12.0 7.0 9.6 85 1.2 NW 26 43 14 23 1000.3 1000.5 6.0
02/08:00pm 12.0 5.9 9.6 85 1.2 NW 32 44 17 24 1000.4 1000.6 5.6
02/07:30pm 11.7 5.1 10.1 90 0.8 NW 35 56 19 30 1000.4 1000.6 5.4
02/07:03pm 11.5 5.8 9.8 89 0.9 NW 30 50 16 27 1000.5 1000.7 4.8
02/07:00pm 11.4 6.1 10.0 91 0.7 NW 28 41 15 22 1000.6 1000.8 4.8
02/06:30pm 11.5 5.2 9.8 89 0.9 NW 33 46 18 25 1000.8 1001.0 2.6
02/06:00pm 11.4 5.7 9.8 90 0.8 NW 30 41 16 22 1000.8 1001.0 1.8
02/05:42pm 11.4 5.3 9.7 89 0.9 NW 32 50 17 27 1000.9 1001.1 1.6
02/05:30pm 11.6 4.4 9.3 86 1.2 NW 37 50 20 27 1000.8 1001.0 1.6
02/05:00pm 11.4 5.7 9.7 89 0.9 NW 30 43 16 23 1000.9 1001.1 1.4
02/04:30pm 11.4 6.1 9.7 89 0.9 NW 28 37 15 20 1001.3 1001.4 1.4
02/04:00pm 11.8 5.9 9.2 84 1.3 NW 30 44 16 24 1001.6 1001.8 1.4
02/03:30pm 11.7 7.0 9.4 86 1.2 NW 24 35 13 19 1001.8 1002.0 1.4
02/03:00pm 11.6 6.3 9.7 88 1.0 NW 28 43 15 23 1002.1 1002.3 1.4
02/02:30pm 11.6 6.6 9.5 87 1.1 NW 26 39 14 21 1002.2 1002.4 1.4
02/02:00pm 11.2 6.6 9.5 89 0.9 NW 24 33 13 18 1002.4 1002.6 1.2
02/01:46pm 11.0 5.6 9.4 90 0.8 NW 28 50 15 27 1002.4 1002.6 1.0
02/01:30pm 11.1 7.2 9.5 90 0.8 NW 20 28 11 15 1002.4 1002.6 1.0
02/01:00pm 11.5 6.4 9.1 85 1.2 NNW 26 35 14 19 1002.8 1003.0 0.0
02/12:30pm 12.7 7.7 8.2 74 2.3 NW 24 37 13 20 1003.4 1003.6 0.0
02/12:00pm 12.3 7.6 7.6 73 2.3 NW 22 32 12 17 1004.0 1004.2 0.0
02/11:30am 12.7 7.9 7.4 70 2.6 NW 22 32 12 17 1004.3 1004.6 0.0
02/11:00am 12.3 8.6 7.8 74 2.2 NW 17 24 9 13 1005.0 1005.2 0.0
02/10:30am 11.8 7.3 7.1 73 2.3 NW 20 28 11 15 1005.3 1005.5 0.0
02/10:00am 11.4 7.4 6.7 73 2.3 NW 17 28 9 15 1005.4 1005.6 0.0
02/09:30am 11.2 6.7 6.3 72 2.3 NW 19 28 10 15 1005.5 1005.7 0.0
02/09:00am 10.5 7.6 6.5 76 1.9 NW 11 19 6 10 1005.6 1005.8 4.6
02/08:30am 9.0 6.3 5.4 78 1.7 NNW 9 13 5 7 1005.9 1006.1 4.6
02/08:00am 8.4 4.8 5.2 80 1.5 NW 13 17 7 9 1006.0 1006.2 4.6
02/07:30am 7.7 3.3 4.5 80 1.4 NW 17 20 9 11 1005.5 1005.7 4.6
02/07:00am 7.1 2.6 4.2 82 1.3 WNW 17 22 9 12 1005.6 1005.8 4.6
02/06:30am 6.8 2.2 3.9 82 1.3 WNW 17 24 9 13 1005.6 1005.8 4.6
02/06:00am 6.8 1.8 3.8 81 1.3 NW 19 30 10 16 1005.7 1005.9 4.6
02/05:30am 7.6 1.8 4.2 79 1.5 NW 24 32 13 17 1005.9 1006.1 4.6
02/05:00am 7.4 1.9 3.8 78 1.6 NW 22 30 12 16 1005.7 1005.9 4.6
02/04:30am 7.3 1.7 3.5 77 1.6 NW 22 35 12 19 1005.7 1005.9 4.6
02/04:00am 7.3 2.1 3.7 78 1.6 WNW 20 30 11 16 1005.6 1005.8 4.6
02/03:30am 7.6 1.6 3.6 76 1.7 NW 24 35 13 19 1005.6 1005.8 4.6
02/03:00am 7.4 2.2 3.6 77 1.7 NW 20 30 11 16 1005.6 1005.8 4.6
02/02:30am 7.2 2.2 3.8 79 1.5 NW 19 28 10 15 1005.9 1006.1 4.6
02/02:00am 7.3 2.3 3.7 78 1.6 WNW 19 28 10 15 1005.9 1006.1 4.6
02/01:30am 7.8 1.1 3.8 76 1.8 WNW 28 43 15 23 1005.8 1006.0 4.6
02/01:00am 7.2 1.2 3.3 76 1.7 WNW 24 32 13 17 1005.6 1005.8 4.6
02/12:30am 7.1 1.8 3.0 75 1.7 WNW 20 28 11 15 1005.7 1005.9 4.6
02/12:00am 7.1 1.8 3.2 76 1.7 NW 20 32 11 17 1005.5 1005.7 4.6
 
Date/Time
EST
Temp
°C
App
Temp
°C
Dew
Point
Rel
Hum
%
Delta-T
°C
Wind Press
QNH
hPa
Press
MSL
hPa
Rain
since 9 am
mm
Dir
 
Spd
km/h
Gust
km/h
Spd
kts
Gust
kts
01/11:30pm 7.3 2.3 3.4 76 1.7 WNW 19 26 10 14 1005.4 1005.6 4.6
01/11:00pm 7.5 2.7 2.4 70 2.2 WNW 17 30 9 16 1005.4 1005.6 4.6
01/10:30pm 7.1 2.5 3.5 78 1.6 WNW 17 24 9 13 1005.5 1005.7 4.6
01/10:00pm 7.4 3.1 3.3 75 1.8 WNW 15 24 8 13 1005.2 1005.4 4.6
01/09:30pm 7.8 3.2 3.8 76 1.8 WNW 17 24 9 13 1005.1 1005.3 4.6
01/09:00pm 8.1 2.9 3.4 72 2.1 W 20 41 11 22 1004.3 1004.6 4.6
01/08:30pm 8.0 0.5 3.7 74 1.9 W 32 44 17 24 1003.6 1003.8 4.6
01/08:00pm 7.9 2.7 3.8 75 1.8 W 20 32 11 17 1003.3 1003.5 4.6
01/07:30pm 8.2 3.1 4.2 76 1.8 W 20 33 11 18 1002.8 1003.0 4.4
01/07:00pm 9.3 2.1 3.1 65 2.7 W 30 56 16 30 1001.8 1002.0 4.4
01/06:47pm 9.2 2.1 3.4 67 2.5 W 30 54 16 29 1001.6 1001.8 4.4
01/06:30pm 9.1 3.6 3.9 70 2.3 W 22 35 12 19 1001.3 1001.4 4.4
01/06:09pm 8.9 2.3 4.1 72 2.1 W 28 46 15 25 1000.4 1000.6 4.4
01/06:00pm 9.0 1.6 4.2 72 2.2 W 32 48 17 26 1000.0 1000.2 4.4
01/05:30pm 9.5 1.6 4.3 70 2.3 W 35 56 19 30 999.1 999.3 4.4
01/05:27pm 9.7 2.2 4.3 69 2.4 W 33 54 18 29 999.0 999.2 4.4
01/05:00pm 10.2 4.1 4.8 69 2.5 W 26 46 14 25 998.2 998.3 4.4
01/04:30pm 10.2 3.4 5.0 70 2.4 W 30 56 16 30 997.2 997.4 4.4
01/04:00pm 10.1 1.6 5.1 71 2.3 W 39 59 21 32 996.1 996.3 4.4
01/03:30pm 10.0 0.7 4.8 70 2.4 W 43 67 23 36 994.9 995.0 4.4
01/03:00pm 9.7 0.2 4.9 72 2.2 W 44 65 24 35 994.2 994.3 4.4
01/02:30pm 10.0 0.7 5.2 72 2.2 W 43 63 23 34 993.5 993.7 4.4
01/02:18pm 10.1 0.7 4.7 69 2.5 W 43 80 23 43 993.2 993.4 4.4
01/02:07pm 10.0 2.3 5.4 73 2.1 W 35 56 19 30 993.0 993.2 4.4
01/02:00pm 10.0 2.5 6.2 77 1.8 W 35 50 19 27 992.9 993.1 4.4
01/01:30pm 10.7 1.8 7.0 78 1.8 WNW 43 61 23 33 992.6 992.7 4.4
01/01:11pm 12.0 3.7 7.9 76 2.0 WNW 41 74 22 40 991.8 991.9 4.4
01/01:01pm 12.0 5.4 8.5 79 1.8 W 33 54 18 29 991.8 991.9 4.4
01/01:00pm 11.9 4.9 8.4 79 1.8 W 35 54 19 29 991.8 991.9 4.4
01/12:30pm 13.8 7.6 9.5 75 2.2 WNW 32 46 17 25 990.9 991.0 4.2
01/12:26pm 14.3 8.7 10.1 76 2.2 WNW 30 46 16 25 990.9 991.0 4.2
01/12:00pm 12.9 9.8 11.6 92 0.7 NW 19 26 10 14 991.0 991.1 4.2
01/11:30am 12.4 10.1 11.6 95 0.4 NNW 15 22 8 12 991.9 992.0 4.2
01/11:00am 12.0 11.0 11.1 94 0.5 WNW 7 15 4 8 993.0 993.2 3.2
01/10:30am 11.5 9.5 10.2 92 0.7 NNW 11 17 6 9 994.4 994.5 2.8
01/10:00am 10.9 6.2 9.3 90 0.8 NNW 24 39 13 21 995.3 995.4 2.6
01/09:42am 11.8 6.5 9.7 87 1.1 N 28 52 15 28 995.4 995.3 2.0
01/09:30am 12.9 9.0 12.0 94 0.5 N 24 35 13 19 995.3 995.2 0.4
01/09:00am 12.6 8.5 11.3 92 0.7 N 24 41 13 22 996.3 996.2 14.8
01/08:56am 12.6 9.1 11.0 90 0.9 NNE 20 41 11 22 996.3 996.2 14.8
01/08:30am 11.9 11.0 10.8 93 0.6 N 6 9 3 5 997.0 996.9 14.6
01/08:00am 11.6 10.7 10.8 95 0.4 ESE 6 11 3 6 997.1 997.0 14.6
01/07:49am 11.5 9.7 10.9 96 0.3 SE 11 17 6 9 996.9 996.8 14.6
01/07:30am 11.7 10.6 10.8 94 0.5 NW 7 11 4 6 999.0 998.9 13.2
01/07:00am 11.9 9.6 10.5 91 0.7 NW 13 20 7 11 999.6 999.5 11.4
01/06:30am 12.7 9.2 10.1 84 1.4 WNW 19 26 10 14 999.6 999.5 8.6
01/06:00am 13.8 10.4 10.6 81 1.7 NW 19 28 10 15 999.5 999.4 7.8
01/05:30am 15.0 7.9 11.0 77 2.2 WNW 39 69 21 37 999.4 999.3 7.4
01/05:21am 16.0 10.8 11.6 75 2.4 NNW 30 69 16 37 999.2 999.1 7.0
01/05:20am 16.3 11.7 12.3 77 2.2 N 28 48 15 26 999.4 999.3 7.0
01/05:00am 16.9 12.6 12.0 73 2.7 N 26 43 14 23 999.6 999.5 7.0
01/04:30am 16.4 13.3 12.2 76 2.3 N 20 33 11 18 1000.4 1000.3 7.0
01/04:00am 15.1 16.2 13.5 90 0.9 CALM 0 4 0 2 1001.7 1001.6 7.0
01/03:30am 14.9 16.2 14.1 95 0.5 CALM 0 7 0 4 1002.2 1002.1 7.0
01/03:00am 14.8 15.4 14.3 97 0.3 W 4 7 2 4 1002.9 1002.8 7.0
01/02:30am 14.7 15.3 14.2 97 0.3 ESE 4 4 2 2 1003.1 1003.0 6.4
01/02:00am 15.0 15.7 14.4 96 0.3 N 4 6 2 3 1004.0 1004.0 6.2
01/01:30am 15.2 15.6 14.7 97 0.3 N 6 9 3 5 1004.6 1004.6 6.2
01/01:00am 15.2 15.4 14.7 97 0.3 N 7 13 4 7 1005.5 1005.4 6.2
01/12:30am 15.1 15.3 14.8 98 0.2 NNW 7 13 4 7 1006.5 1006.4 6.2
01/12:00am 15.1 14.1 14.6 97 0.3 NNW 13 20 7 11 1007.0 1007.0 6.2
 
Date/Time
EST
Temp
°C
App
Temp
°C
Dew
Point
Rel
Hum
%
Delta-T
°C
Wind Press
QNH
hPa
Press
MSL
hPa
Rain
since 9 am
mm
Dir
 
Spd
km/h
Gust
km/h
Spd
kts
Gust
kts
30/11:30pm 15.2 13.6 14.9 98 0.2 NNW 17 26 9 14 1007.5 1007.5 6.2
30/11:00pm 15.3 14.9 15.1 99 0.1 NNW 11 15 6 8 1007.8 1007.8 3.4
30/10:30pm 15.2 15.1 15.0 99 0.1 NNW 9 17 5 9 1008.5 1008.4 3.4
30/10:00pm 15.2 14.0 15.0 99 0.1 NNW 15 20 8 11 1009.0 1008.9 3.4
30/09:30pm 15.3 14.5 15.1 99 0.1 N 13 19 7 10 1009.3 1009.2 2.6
30/09:00pm 15.3 15.3 15.1 99 0.1 N 9 15 5 8 1009.4 1009.3 1.8
30/08:30pm 15.2 15.5 15.0 99 0.1 NNW 7 13 4 7 1009.4 1009.3 1.8
30/08:00pm 15.3 14.8 15.0 98 0.2 NNW 11 20 6 11 1009.7 1009.7 1.8
30/07:30pm 15.2 14.7 14.9 98 0.2 NNW 11 17 6 9 1009.7 1009.7 1.8
30/07:00pm 14.9 15.9 14.4 97 0.3 NW 2 4 1 2 1009.7 1009.7 1.6
30/06:30pm 15.1 15.4 14.6 97 0.3 NW 6 9 3 5 1009.9 1009.9 0.4
30/06:00pm 15.0 14.6 14.2 95 0.5 NW 9 11 5 6 1010.0 1010.0 0.4
30/05:30pm 15.1 13.5 14.0 93 0.6 NNW 15 20 8 11 1009.8 1009.8 0.4
30/05:00pm 15.1 13.5 13.8 92 0.7 NNW 15 20 8 11 1009.9 1009.9 0.4
30/04:30pm 15.6 14.1 14.1 91 0.9 NNW 15 22 8 12 1010.2 1010.2 0.4
30/04:00pm 15.7 14.2 14.1 90 0.9 NNW 15 19 8 10 1010.1 1010.1 0.4
30/03:30pm 15.9 14.0 14.3 90 0.9 NNW 17 22 9 12 1010.2 1010.2 0.4
30/03:00pm 16.0 13.5 14.0 88 1.1 NNW 20 30 11 16 1010.3 1010.3 0.4
30/02:30pm 16.4 13.9 14.2 87 1.3 NW 20 28 11 15 1010.3 1010.3 0.4
30/02:00pm 16.1 13.3 14.3 89 1.0 NNW 22 32 12 17 1010.4 1010.4 0.4
30/01:30pm 16.0 13.8 14.5 91 0.9 NNW 19 26 10 14 1010.5 1010.5 0.4
30/01:00pm 16.2 14.1 14.6 90 0.9 NW 19 28 10 15 1010.7 1010.7 0.4
30/12:30pm 15.3 13.2 14.7 96 0.3 NW 19 26 10 14 1011.2 1011.2 0.4
30/12:00pm 15.1 12.8 14.6 97 0.3 NW 20 30 11 16 1011.7 1011.7 0.4
30/11:30am 14.7 14.4 14.4 98 0.2 NNW 9 17 5 9 1012.0 1011.9 0.4

Other Formats:

Comma delimited format used in spreadsheet applications
http://www.bom.gov.au/fwo/IDT60801/IDT60801.94955.axf

JavaScript Object Notation format (JSON) in row-major order
http://www.bom.gov.au/fwo/IDT60801/IDT60801.94955.json